createdAt,value
2023-01-18T00:04:25.517Z,36.1
2023-01-18T00:09:32.299Z,36.1
2023-01-18T00:14:54.518Z,36
2023-01-18T00:20:17.680Z,36
2023-01-18T00:25:40.295Z,36
2023-01-18T00:31:02.920Z,35.9
2023-01-18T00:36:13.945Z,35.9
2023-01-18T00:41:36.544Z,35.9
2023-01-18T00:46:59.675Z,35.9
2023-01-18T00:52:06.302Z,35.8
2023-01-18T00:57:14.324Z,35.8
2023-01-18T01:02:21.445Z,35.8
2023-01-18T01:07:44.493Z,35.8
2023-01-18T01:13:06.612Z,35.7
2023-01-18T01:18:29.006Z,35.7
2023-01-18T01:23:52.087Z,35.6
2023-01-18T01:28:43.977Z,35.6
2023-01-18T01:34:06.179Z,35.6
2023-01-18T01:44:20.644Z,35.5
2023-01-18T01:49:42.796Z,35.5
2023-01-18T01:55:04.607Z,35.5
2023-01-18T02:00:26.708Z,35.4
2023-01-18T02:05:49.756Z,35.4
2023-01-18T02:11:11.393Z,35.4
2023-01-18T02:16:34.416Z,35.3
2023-01-18T02:21:56.328Z,35.3
2023-01-18T02:27:19.122Z,35.3
2023-01-18T02:32:26.621Z,35.3
2023-01-18T02:37:49.236Z,35.3
2023-01-18T02:43:11.884Z,35.2
2023-01-18T02:48:37.554Z,35.1
2023-01-18T02:53:59.276Z,35.1
2023-01-18T02:59:21.980Z,35.1
2023-01-18T03:04:44.811Z,35.1
2023-01-18T03:09:51.997Z,35.1
2023-01-18T03:19:50.406Z,35
2023-01-18T03:24:58.612Z,34.9
2023-01-18T03:30:05.073Z,34.9
2023-01-18T03:35:28.095Z,34.9
2023-01-18T03:40:50.840Z,34.9
2023-01-18T03:56:28.180Z,34.8
2023-01-18T04:01:50.846Z,34.8
2023-01-18T04:07:14.121Z,34.7
2023-01-18T04:12:36.007Z,34.7
2023-01-18T04:17:58.051Z,34.6
2023-01-18T04:23:19.935Z,34.6
2023-01-18T04:28:27.313Z,34.6
2023-01-18T04:38:42.291Z,34.5
2023-01-18T04:43:50.022Z,34.5
2023-01-18T04:49:12.867Z,34.4
2023-01-18T04:54:35.618Z,34.4
2023-01-18T04:59:57.937Z,34.4
2023-01-18T05:05:21.845Z,34.4
2023-01-18T05:10:44.350Z,34.4
2023-01-18T05:16:06.769Z,34.3
2023-01-18T05:21:29.652Z,34.3
2023-01-18T05:26:52.606Z,34.3
2023-01-18T05:32:18.242Z,34.4
2023-01-18T05:37:40.171Z,34.4
2023-01-18T05:42:50.397Z,34.3
2023-01-18T05:48:13.134Z,34.3
2023-01-18T05:53:38.135Z,34.3
2023-01-18T05:59:00.186Z,34.3
2023-01-18T06:04:07.808Z,34.3
2023-01-18T06:09:15.520Z,34.2
2023-01-18T06:14:38.841Z,34.2
2023-01-18T06:19:48.031Z,34.2
2023-01-18T06:25:13.448Z,34.1
2023-01-18T06:30:36.259Z,34.1
2023-01-18T06:35:58.928Z,34.1
2023-01-18T06:41:22.189Z,34
2023-01-18T06:46:45.157Z,34
2023-01-18T06:52:08.007Z,34
2023-01-18T06:57:34.117Z,33.9
2023-01-18T07:02:58.732Z,33.9
2023-01-18T07:13:28.907Z,33.9
2023-01-18T07:19:04.094Z,33.8
2023-01-18T07:24:26.648Z,43.8
2023-01-18T07:29:49.586Z,41.5
2023-01-18T07:35:15.890Z,40
2023-01-18T07:40:38.048Z,47.9
2023-01-18T07:46:03.708Z,46.3
2023-01-18T07:51:26.379Z,49.3
2023-01-18T07:56:49.327Z,50.2
2023-01-18T08:02:12.672Z,51
2023-01-18T08:07:35.891Z,51.9
2023-01-18T08:13:00.308Z,52.7
2023-01-18T08:18:26.642Z,53.4
2023-01-18T08:23:49.509Z,54.3
2023-01-18T08:29:12.323Z,54.9
2023-01-18T08:34:35.565Z,55.5
2023-01-18T08:39:58.667Z,56.1
2023-01-18T08:45:21.060Z,56.5
2023-01-18T08:50:44.124Z,57.1
2023-01-18T09:01:16.884Z,58.1
2023-01-18T09:06:41.017Z,58.5
2023-01-18T09:12:04.215Z,58.9
2023-01-18T09:17:40.805Z,59.4
2023-01-18T09:23:05.439Z,59.6
2023-01-18T09:28:27.955Z,59.9
2023-01-18T09:33:54.753Z,60.3
2023-01-18T09:39:25.217Z,60.8
2023-01-18T09:44:56.721Z,61.1
2023-01-18T09:50:19.112Z,61.6
2023-01-18T09:55:41.640Z,61.8
2023-01-18T10:00:49.263Z,62
2023-01-18T10:06:12.625Z,62.3
2023-01-18T10:11:35.360Z,62.8
2023-01-18T10:16:59.110Z,63.3
2023-01-18T10:22:21.864Z,63.6
2023-01-18T10:27:44.197Z,63.8
2023-01-18T10:33:07.201Z,64.1
2023-01-18T10:43:37.715Z,64.6
2023-01-18T10:49:01.648Z,64.6
2023-01-18T10:54:24.442Z,64.7
2023-01-18T10:59:47.408Z,64.8
2023-01-18T11:05:11.988Z,65
2023-01-18T11:10:34.194Z,65.1
2023-01-18T11:15:56.713Z,65.4
2023-01-18T11:26:30.231Z,65.9
2023-01-18T11:31:55.476Z,65.8
2023-01-18T11:37:20.958Z,65.6
2023-01-18T11:42:42.817Z,65.5
2023-01-18T11:48:05.730Z,65.9
2023-01-18T11:53:44.665Z,65.9
2023-01-18T11:58:52.301Z,66
2023-01-18T12:04:16.315Z,65.1
2023-01-18T12:09:41.976Z,64.4
2023-01-18T12:15:20.815Z,65.8
2023-01-18T12:20:58.756Z,66.1
2023-01-18T12:26:29.335Z,66
2023-01-18T12:31:52.908Z,65.7
2023-01-18T12:37:35.493Z,65.3
2023-01-18T12:43:01.275Z,65.1
2023-01-18T12:48:23.598Z,64.6
2023-01-18T12:53:57.825Z,64.2
2023-01-18T12:59:21.499Z,63.9
2023-01-18T13:04:47.624Z,62.3
2023-01-18T13:10:11.095Z,57.4
2023-01-18T13:15:34.037Z,53.9
2023-01-18T13:20:56.370Z,51.9
2023-01-18T13:26:19.159Z,50.5
2023-01-18T13:31:42.915Z,49.4
2023-01-18T13:37:46.924Z,48.8
2023-01-18T13:43:16.708Z,48.1
2023-01-18T13:48:40.297Z,47.6
2023-01-18T13:54:21.292Z,47.3
2023-01-18T13:59:45.240Z,47
2023-01-18T14:05:09.368Z,46.8
2023-01-18T14:10:32.101Z,46.6
2023-01-18T14:15:57.066Z,46.4
2023-01-18T14:21:38.761Z,46.2
2023-01-18T14:27:01.074Z,46
2023-01-18T14:32:24.220Z,45.8
2023-01-18T14:37:47.999Z,45.6
2023-01-18T14:48:47.094Z,45.2
2023-01-18T14:54:10.180Z,45
2023-01-18T14:59:32.840Z,44.8
2023-01-18T15:04:57.000Z,44.6
2023-01-18T15:10:04.678Z,44.5
2023-01-18T15:14:56.552Z,44.3
2023-01-18T15:20:04.289Z,44.2
2023-01-18T15:25:27.806Z,44.1
2023-01-18T15:31:05.484Z,43.9
2023-01-18T15:36:28.694Z,43.8
2023-01-18T15:41:51.823Z,43.7
2023-01-18T15:47:14.368Z,43.6
2023-01-18T15:52:21.836Z,43.5
2023-01-18T15:57:44.483Z,43.3
2023-01-18T16:03:09.141Z,43.3
2023-01-18T16:08:48.208Z,43.2
2023-01-18T16:14:11.023Z,43.1
2023-01-18T16:19:33.197Z,43.1
2023-01-18T16:24:55.967Z,43
2023-01-18T16:30:18.797Z,42.9
2023-01-18T16:35:44.204Z,42.9
2023-01-18T16:41:15.651Z,42.8
2023-01-18T16:46:51.504Z,42.8
2023-01-18T16:52:14.881Z,42.6
2023-01-18T16:57:37.978Z,42.4
2023-01-18T17:03:01.599Z,42.4
2023-01-18T17:08:23.725Z,42.4
2023-01-18T17:13:53.371Z,42.3
2023-01-18T17:19:20.433Z,42.2
2023-01-18T17:24:42.908Z,42.2
2023-01-18T17:30:06.228Z,42.1
2023-01-18T17:35:36.584Z,42.1
2023-01-18T17:41:52.720Z,42
2023-01-18T17:47:50.172Z,41.9
2023-01-18T17:52:59.559Z,41.8
2023-01-18T17:58:37.417Z,41.8
2023-01-18T18:04:02.784Z,41.7
2023-01-18T18:09:41.053Z,41.5
2023-01-18T18:15:05.358Z,41.5
2023-01-18T18:26:02.435Z,41.4
2023-01-18T18:31:36.326Z,41.4
2023-01-18T18:37:14.953Z,41.3
2023-01-18T18:42:39.717Z,41.3
2023-01-18T18:48:11.625Z,41.3
2023-01-18T18:58:52.984Z,41.1
2023-01-18T19:04:18.578Z,41.1
2023-01-18T19:09:43.137Z,41
2023-01-18T19:14:59.700Z,41
2023-01-18T19:20:33.590Z,40.9
2023-01-18T19:25:58.836Z,40.9
2023-01-18T19:31:23.219Z,40.7
2023-01-18T19:36:47.437Z,40.7
2023-01-18T19:42:25.654Z,40.6
2023-01-18T19:47:42.309Z,40.6
2023-01-18T19:53:02.267Z,40.6
2023-01-18T19:58:21.186Z,40.5
2023-01-18T20:03:50.437Z,40.5
2023-01-18T20:08:59.403Z,40.4
2023-01-18T20:14:18.541Z,40.4
2023-01-18T20:19:49.689Z,40.3
2023-01-18T20:25:21.838Z,40.3
2023-01-18T20:30:58.251Z,40.3
2023-01-18T20:36:31.877Z,40.2
2023-01-18T20:41:56.386Z,40.1
2023-01-18T20:52:08.868Z,40.1
2023-01-18T20:57:50.163Z,40
2023-01-18T21:03:16.076Z,39.9
2023-01-18T21:08:24.206Z,39.9
2023-01-18T21:13:32.969Z,39.9
2023-01-18T21:18:40.923Z,39.8
2023-01-18T21:23:47.327Z,39.8
2023-01-18T21:29:10.579Z,39.8
2023-01-18T21:34:34.080Z,39.7
2023-01-18T21:39:57.394Z,39.6
2023-01-18T21:45:20.245Z,39.6
2023-01-18T21:56:31.724Z,39.5
2023-01-18T22:01:56.273Z,39.4
2023-01-18T22:07:20.468Z,39.4
2023-01-18T22:12:50.070Z,39.4
2023-01-18T22:17:57.642Z,39.3
2023-01-18T22:28:30.842Z,39.3
2023-01-18T22:33:53.322Z,39.2
2023-01-18T22:39:16.285Z,39.2
2023-01-18T22:44:38.868Z,39.1
2023-01-18T22:50:01.651Z,39.1
2023-01-18T22:55:24.282Z,39.1
2023-01-18T23:05:54.559Z,38.9
2023-01-18T23:11:02.591Z,38.9
2023-01-18T23:16:10.260Z,38.9
2023-01-18T23:21:17.505Z,38.8
2023-01-18T23:26:39.865Z,38.8
2023-01-18T23:42:02.001Z,38.7
2023-01-18T23:47:25.262Z,38.6
2023-01-18T23:52:50.173Z,38.6
2023-01-18T23:58:13.002Z,38.6
